Time;durP1;ratioP1;P1;durP2;ratioP2;P2;SDS_P1;SDS_P2;PMS_P1;PMS_P2;Temp;Humidity;BMP_temperature;BMP_pressure;BME280_temperature;BME280_humidity;BME280_pressure;Samples;Min_cycle;Max_cycle;Signal;HPM_P1;HPM_P2
2023/11/26 00:02:22;;;;;;;1.00;0.90;;;2.50;99.90;;;;;;6189607;23;20435;-63
2023/11/26 00:04:49;;;;;;;1.20;1.07;;;2.50;99.90;;;;;;6190899;23;20432;-64
2023/11/26 00:07:16;;;;;;;3.20;1.67;;;2.40;99.90;;;;;;6188798;23;20463;-62
2023/11/26 00:09:43;;;;;;;1.53;1.30;;;2.40;99.90;;;;;;6188885;23;20428;-63
2023/11/26 00:12:10;;;;;;;2.80;0.77;;;2.40;99.90;;;;;;6188896;23;20959;-62
2023/11/26 00:14:38;;;;;;;3.83;1.23;;;2.40;99.90;;;;;;6189101;23;20393;-62
2023/11/26 00:17:06;;;;;;;1.10;0.90;;;2.40;99.90;;;;;;6188722;23;20431;-63
2023/11/26 00:19:34;;;;;;;5.27;1.20;;;2.40;99.90;;;;;;6188870;23;20405;-62
2023/11/26 00:22:01;;;;;;;2.20;1.27;;;2.40;99.90;;;;;;6189197;23;20431;-63
2023/11/26 00:24:28;;;;;;;3.50;1.50;;;2.90;99.90;;;;;;6189032;23;20503;-62
2023/11/26 00:26:55;;;;;;;2.27;1.40;;;2.30;99.90;;;;;;6188948;23;20508;-62
2023/11/26 00:29:22;;;;;;;3.77;0.90;;;2.30;99.90;;;;;;6189009;23;20400;-60
2023/11/26 00:31:49;;;;;;;2.40;1.33;;;2.40;99.90;;;;;;6188574;23;20491;-63
2023/11/26 00:34:16;;;;;;;4.30;1.37;;;2.40;99.90;;;;;;6188695;23;20911;-63
2023/11/26 00:36:44;;;;;;;1.70;1.20;;;2.40;99.90;;;;;;6188504;23;20499;-64
2023/11/26 00:39:11;;;;;;;1.87;1.40;;;2.40;99.90;;;;;;6188661;23;20468;-61
2023/11/26 00:41:38;;;;;;;2.17;1.30;;;2.40;99.90;;;;;;6188470;23;20409;-63
2023/11/26 00:44:05;;;;;;;3.73;1.53;;;2.40;99.90;;;;;;6188865;23;20490;-63
2023/11/26 00:46:32;;;;;;;1.30;0.97;;;2.40;99.90;;;;;;6188413;23;20401;-62
2023/11/26 00:48:59;;;;;;;4.07;1.53;;;2.40;99.90;;;;;;6188526;23;20476;-63
2023/11/26 00:51:26;;;;;;;1.00;0.80;;;2.40;99.90;;;;;;6188409;23;20401;-62
2023/11/26 00:53:55;;;;;;;1.20;0.90;;;2.40;99.90;;;;;;6188805;23;20447;-62
2023/11/26 00:56:20;;;;;;;1.20;0.90;;;2.40;99.90;;;;;;6188424;23;20409;-63
2023/11/26 00:58:47;;;;;;;1.10;0.80;;;2.40;99.90;;;;;;6188631;23;20471;-63
2023/11/26 01:01:15;;;;;;;2.70;1.53;;;2.40;99.90;;;;;;6188792;23;20204;-63
2023/11/26 01:03:42;;;;;;;2.57;1.20;;;2.40;99.90;;;;;;6188618;23;20412;-60
2023/11/26 01:06:08;;;;;;;1.70;1.33;;;2.40;99.90;;;;;;6189652;23;20415;-63
2023/11/26 01:08:36;;;;;;;2.90;1.20;;;2.40;99.90;;;;;;6188293;23;20460;-64
2023/11/26 01:11:06;;;;;;;2.37;1.20;;;2.40;99.90;;;;;;6188306;23;20925;-64
2023/11/26 01:13:33;;;;;;;1.53;1.00;;;2.40;99.90;;;;;;6188178;23;20429;-62
2023/11/26 01:16:00;;;;;;;2.07;1.53;;;2.40;99.90;;;;;;6188803;23;20436;-62
2023/11/26 01:18:27;;;;;;;5.87;1.77;;;2.40;99.90;;;;;;6188503;23;20424;-62
2023/11/26 01:20:53;;;;;;;2.50;1.07;;;2.40;99.90;;;;;;6188352;23;20405;-63
2023/11/26 01:23:21;;;;;;;2.43;1.60;;;2.40;99.90;;;;;;6188495;23;20463;-64
2023/11/26 01:25:48;;;;;;;1.57;1.13;;;2.40;99.90;;;;;;6188149;23;20519;-63
2023/11/26 01:28:16;;;;;;;4.40;0.90;;;2.40;99.90;;;;;;6188049;23;20457;-64
2023/11/26 01:30:44;;;;;;;1.67;0.97;;;2.40;99.90;;;;;;6188477;23;20425;-63
2023/11/26 01:33:11;;;;;;;2.00;1.13;;;2.40;99.90;;;;;;6187936;23;20903;-62
2023/11/26 01:35:38;;;;;;;1.60;1.03;;;2.40;99.90;;;;;;6188453;23;20817;-64
2023/11/26 01:38:04;;;;;;;3.57;1.67;;;2.40;99.90;;;;;;6188366;23;20555;-64
2023/11/26 01:40:37;;;;;;;2.77;0.97;;;2.40;99.90;;;;;;6188645;23;20483;-64
2023/11/26 01:43:04;;;;;;;1.90;1.20;;;2.30;99.90;;;;;;6187938;23;20920;-61
2023/11/26 01:45:32;;;;;;;1.57;1.00;;;2.30;99.90;;;;;;6188153;23;20608;-62
2023/11/26 01:48:00;;;;;;;2.03;1.03;;;2.30;99.90;;;;;;6187819;23;20489;-64
2023/11/26 01:50:28;;;;;;;3.77;1.37;;;2.30;99.90;;;;;;6188300;23;20443;-64
2023/11/26 01:52:56;;;;;;;2.40;1.13;;;2.30;99.90;;;;;;6188184;23;20433;-62
2023/11/26 01:55:24;;;;;;;1.50;0.80;;;2.30;99.90;;;;;;6188539;23;20397;-63
2023/11/26 01:57:52;;;;;;;1.83;1.33;;;2.30;99.90;;;;;;6188247;23;20436;-62
2023/11/26 02:00:21;;;;;;;3.57;1.10;;;2.30;99.90;;;;;;6188227;23;20390;-64
2023/11/26 02:02:49;;;;;;;1.90;1.00;;;2.30;99.90;;;;;;6188154;23;20483;-62
2023/11/26 02:05:17;;;;;;;4.10;1.03;;;2.30;99.90;;;;;;6188048;23;20467;-61
2023/11/26 02:07:44;;;;;;;2.10;1.07;;;2.30;99.90;;;;;;6187586;23;20496;-64
2023/11/26 02:10:12;;;;;;;1.93;0.83;;;2.20;99.90;;;;;;6187849;23;20386;-62
2023/11/26 02:12:39;;;;;;;1.00;0.70;;;2.20;99.90;;;;;;6187961;23;20428;-63
2023/11/26 02:15:09;;;;;;;1.20;0.80;;;2.30;99.90;;;;;;6187688;23;20385;-64
2023/11/26 02:17:36;;;;;;;2.90;1.00;;;2.30;99.90;;;;;;6187622;23;20386;-64
2023/11/26 02:20:06;;;;;;;3.60;0.87;;;2.30;99.90;;;;;;6188185;23;20768;-63
2023/11/26 02:22:33;;;;;;;1.80;0.90;;;2.30;99.90;;;;;;6187634;23;20907;-63
2023/11/26 02:25:02;;;;;;;1.53;1.00;;;2.40;99.90;;;;;;6187730;23;20472;-64
2023/11/26 02:27:29;;;;;;;0.90;0.70;;;2.40;99.90;;;;;;6187699;23;20752;-63
2023/11/26 02:29:56;;;;;;;1.00;0.73;;;2.40;99.90;;;;;;6187528;23;20432;-62
2023/11/26 02:32:22;;;;;;;2.30;1.10;;;2.40;99.90;;;;;;6187482;23;20405;-64
2023/11/26 02:34:49;;;;;;;1.40;0.80;;;2.40;99.90;;;;;;6187443;23;20893;-62
2023/11/26 02:37:16;;;;;;;2.53;1.60;;;2.40;99.90;;;;;;6187911;23;20409;-62
2023/11/26 02:39:43;;;;;;;1.73;1.20;;;2.40;99.90;;;;;;6187668;23;20511;-63
2023/11/26 02:42:12;;;;;;;2.30;1.20;;;2.30;99.90;;;;;;6188852;23;20428;-63
2023/11/26 02:44:39;;;;;;;2.43;1.47;;;2.40;99.90;;;;;;6187370;23;20943;-63
2023/11/26 02:47:07;;;;;;;1.23;0.80;;;2.30;99.90;;;;;;6187437;23;20400;-62
2023/11/26 02:49:34;;;;;;;2.23;0.90;;;2.30;99.90;;;;;;6187671;23;20501;-63
2023/11/26 02:52:01;;;;;;;1.60;0.90;;;2.30;99.90;;;;;;6187820;23;20463;-64
2023/11/26 02:54:28;;;;;;;1.60;1.30;;;2.30;99.90;;;;;;6187424;23;20428;-64
2023/11/26 02:56:55;;;;;;;2.47;1.57;;;2.20;99.90;;;;;;6188029;23;20397;-63
2023/11/26 02:59:23;;;;;;;2.67;1.47;;;2.20;99.90;;;;;;6187295;23;20475;-64
2023/11/26 03:01:56;;;;;;;2.13;1.00;;;2.10;99.90;;;;;;6187895;23;20480;-62
2023/11/26 03:04:23;;;;;;;1.50;0.90;;;2.10;99.90;;;;;;6187488;23;20961;-62
2023/11/26 03:06:52;;;;;;;5.10;1.50;;;2.10;99.90;;;;;;6187718;23;20744;-62
2023/11/26 03:09:40;;;;;;;1.40;1.23;;;2.10;99.90;;;;;;6187452;23;20448;-62
2023/11/26 03:15:09;;;;;;;2.60;0.87;;;2.00;99.90;;;;;;6097139;23;20388;-61
2023/11/26 03:17:35;;;;;;;1.27;0.80;;;2.00;99.90;;;;;;6096825;23;20470;-62
2023/11/26 03:20:02;;;;;;;1.60;0.97;;;2.10;99.90;;;;;;6137284;23;20487;-64
2023/11/26 03:22:29;;;;;;;1.70;1.00;;;2.10;99.90;;;;;;6187679;23;20397;-63
2023/11/26 03:24:56;;;;;;;1.30;0.70;;;2.10;99.90;;;;;;6187487;23;20459;-63
2023/11/26 03:27:23;;;;;;;2.33;1.03;;;2.00;99.90;;;;;;6187626;23;20432;-63
2023/11/26 03:29:50;;;;;;;2.97;0.90;;;2.00;99.90;;;;;;6189079;23;20959;-63
2023/11/26 03:32:18;;;;;;;1.50;0.93;;;2.00;99.90;;;;;;6189628;23;20748;-64
2023/11/26 03:34:45;;;;;;;2.50;1.27;;;2.10;99.90;;;;;;6189453;23;20431;-63
2023/11/26 03:37:13;;;;;;;3.43;1.33;;;2.00;99.90;;;;;;6189575;23;20459;-65
2023/11/26 03:39:42;;;;;;;1.13;0.90;;;2.00;99.90;;;;;;6189498;23;20428;-64
2023/11/26 03:42:09;;;;;;;1.67;1.07;;;2.00;99.90;;;;;;6193257;23;20405;-63
2023/11/26 03:44:36;;;;;;;2.03;1.03;;;1.90;99.90;;;;;;6190389;23;20546;-64
2023/11/26 03:47:04;;;;;;;2.53;1.20;;;1.90;99.90;;;;;;6189443;23;20401;-62
2023/11/26 03:49:32;;;;;;;1.80;1.10;;;1.90;99.90;;;;;;6189340;23;20491;-64
2023/11/26 03:52:00;;;;;;;2.00;1.30;;;2.00;99.90;;;;;;6189398;23;20401;-63
2023/11/26 03:54:26;;;;;;;3.47;1.43;;;2.00;99.90;;;;;;6189304;23;20719;-61
2023/11/26 03:56:54;;;;;;;3.40;1.37;;;2.00;99.90;;;;;;6189340;23;20429;-63
2023/11/26 03:59:22;;;;;;;2.70;1.33;;;1.90;99.90;;;;;;6188893;23;20528;-61
2023/11/26 04:01:49;;;;;;;3.23;1.20;;;1.90;99.90;;;;;;6188952;23;20408;-63
2023/11/26 04:04:15;;;;;;;1.77;1.00;;;2.00;99.90;;;;;;6189177;23;20464;-63
2023/11/26 04:06:44;;;;;;;1.90;0.80;;;1.90;99.90;;;;;;6189118;23;20471;-63
2023/11/26 04:09:13;;;;;;;2.27;1.23;;;1.80;99.90;;;;;;6188970;23;20412;-62
2023/11/26 04:11:44;;;;;;;1.97;1.20;;;1.80;99.90;;;;;;6189052;23;20793;-63
2023/11/26 04:14:11;;;;;;;1.43;1.00;;;1.90;99.90;;;;;;6189126;23;20816;-62
2023/11/26 04:16:48;;;;;;;3.67;1.57;;;1.80;99.90;;;;;;6188904;23;20387;-62
2023/11/26 04:19:15;;;;;;;1.97;1.30;;;1.80;99.90;;;;;;6189361;23;20675;-63
2023/11/26 04:21:45;;;;;;;2.60;0.90;;;1.80;99.90;;;;;;6189236;23;20443;-63
2023/11/26 04:24:12;;;;;;;2.03;1.00;;;1.80;99.90;;;;;;6188631;23;20878;-61
2023/11/26 04:26:39;;;;;;;1.90;0.90;;;1.90;99.90;;;;;;6189034;23;20812;-63
2023/11/26 04:29:06;;;;;;;5.50;1.10;;;1.90;99.90;;;;;;6189091;23;20752;-63
2023/11/26 04:31:34;;;;;;;1.97;1.33;;;1.90;99.90;;;;;;6189015;23;20420;-63
2023/11/26 04:34:01;;;;;;;1.43;0.90;;;1.90;99.90;;;;;;6189147;23;20726;-62
2023/11/26 04:36:28;;;;;;;1.00;0.90;;;1.90;99.90;;;;;;6188629;23;20890;-61
2023/11/26 04:38:57;;;;;;;3.07;1.00;;;2.00;99.90;;;;;;6188879;23;20424;-63
2023/11/26 04:41:23;;;;;;;2.50;1.33;;;1.90;99.90;;;;;;6188102;23;20429;-62
2023/11/26 04:43:51;;;;;;;3.60;1.10;;;2.00;99.90;;;;;;6188893;23;20428;-61
2023/11/26 04:46:18;;;;;;;3.20;1.20;;;2.00;99.90;;;;;;6188321;23;20445;-61
2023/11/26 04:48:44;;;;;;;1.73;1.60;;;2.00;99.90;;;;;;6188497;23;20411;-63
2023/11/26 04:51:11;;;;;;;2.40;1.60;;;2.00;99.90;;;;;;6188501;23;20425;-63
2023/11/26 04:53:39;;;;;;;1.30;1.07;;;2.00;99.90;;;;;;6188455;23;20433;-63
2023/11/26 04:56:08;;;;;;;1.73;1.23;;;2.00;99.90;;;;;;6188973;23;20487;-63
2023/11/26 04:58:34;;;;;;;1.90;1.20;;;2.00;99.90;;;;;;6188390;23;20919;-63
2023/11/26 05:01:03;;;;;;;1.30;0.90;;;2.00;99.90;;;;;;6188677;23;20433;-63
2023/11/26 05:03:29;;;;;;;3.20;1.63;;;2.00;99.90;;;;;;6188388;23;20479;-60
2023/11/26 05:05:56;;;;;;;1.83;1.30;;;1.90;99.90;;;;;;6188560;23;20535;-63
2023/11/26 05:08:24;;;;;;;0.90;0.73;;;1.90;99.90;;;;;;6188515;23;20491;-63
2023/11/26 05:10:51;;;;;;;1.53;1.37;;;1.90;99.90;;;;;;6188221;23;20429;-62
2023/11/26 05:13:19;;;;;;;1.40;1.10;;;1.90;99.90;;;;;;6188709;23;20917;-63
2023/11/26 05:15:46;;;;;;;1.87;1.30;;;1.90;99.90;;;;;;6188549;23;20449;-64
2023/11/26 05:18:12;;;;;;;1.43;1.00;;;1.80;99.90;;;;;;6188645;23;20454;-62
2023/11/26 05:20:39;;;;;;;1.73;1.37;;;1.90;99.90;;;;;;6189553;23;20453;-63
2023/11/26 05:23:07;;;;;;;1.83;1.47;;;1.90;99.90;;;;;;6188552;23;20404;-64
2023/11/26 05:25:33;;;;;;;2.07;1.33;;;1.90;99.90;;;;;;6187939;23;21002;-63
2023/11/26 05:28:00;;;;;;;1.50;1.00;;;1.90;99.90;;;;;;6188649;23;20481;-65
2023/11/26 05:30:28;;;;;;;1.67;0.97;;;1.90;99.90;;;;;;6188423;23;20425;-62
2023/11/26 05:32:57;;;;;;;2.00;1.30;;;1.90;99.90;;;;;;6191853;23;20860;-61
2023/11/26 05:35:27;;;;;;;1.37;1.00;;;1.90;99.90;;;;;;6190820;23;20429;-60
2023/11/26 05:37:55;;;;;;;5.77;1.53;;;1.90;99.90;;;;;;6189656;23;20385;-60
2023/11/26 05:40:22;;;;;;;2.77;1.23;;;1.90;99.90;;;;;;6188353;23;20708;-62
2023/11/26 05:42:50;;;;;;;1.20;1.00;;;1.90;99.90;;;;;;6190646;23;20396;-61
2023/11/26 05:45:16;;;;;;;1.50;1.20;;;1.90;99.90;;;;;;6187960;23;20451;-61
2023/11/26 05:47:45;;;;;;;1.63;1.00;;;1.90;99.90;;;;;;6187988;23;20389;-63
2023/11/26 05:50:12;;;;;;;4.57;1.70;;;1.90;99.90;;;;;;6188563;23;20848;-62
2023/11/26 05:52:39;;;;;;;1.60;0.90;;;1.80;99.90;;;;;;6190854;23;20409;-62
2023/11/26 05:55:07;;;;;;;3.47;1.10;;;1.80;99.90;;;;;;6189418;23;20433;-62
2023/11/26 05:57:34;;;;;;;1.50;1.00;;;1.80;99.90;;;;;;6187909;23;20401;-62
2023/11/26 06:00:00;;;;;;;2.40;1.40;;;1.80;99.90;;;;;;6188195;23;20475;-63
2023/11/26 06:02:27;;;;;;;3.67;1.67;;;1.80;99.90;;;;;;6188159;23;20416;-63
2023/11/26 06:04:56;;;;;;;2.50;1.37;;;1.80;99.90;;;;;;6188731;23;20432;-62
2023/11/26 06:07:24;;;;;;;1.83;1.37;;;1.80;99.90;;;;;;6187920;23;20396;-62
2023/11/26 06:09:51;;;;;;;1.73;1.33;;;1.90;99.90;;;;;;6188547;23;20875;-63
2023/11/26 06:12:18;;;;;;;1.67;1.00;;;1.90;99.90;;;;;;6188224;23;20421;-64
2023/11/26 06:14:45;;;;;;;1.67;1.40;;;1.80;99.90;;;;;;6188141;23;20483;-60
2023/11/26 06:17:12;;;;;;;2.53;1.47;;;1.90;99.90;;;;;;6187794;23;20500;-62
2023/11/26 06:19:39;;;;;;;1.60;1.20;;;1.90;99.90;;;;;;6188174;23;20480;-63
2023/11/26 06:22:07;;;;;;;2.70;1.93;;;1.90;99.90;;;;;;6188249;23;20425;-61
2023/11/26 06:24:34;;;;;;;5.23;2.30;;;1.90;99.90;;;;;;6188003;23;20433;-60
2023/11/26 06:27:01;;;;;;;4.70;1.83;;;1.80;99.90;;;;;;6188691;23;20487;-61
2023/11/26 06:29:28;;;;;;;2.70;1.83;;;1.90;99.90;;;;;;6187595;23;20419;-61
2023/11/26 06:31:54;;;;;;;3.23;2.00;;;2.00;99.90;;;;;;6188014;23;20451;-63
2023/11/26 06:34:25;;;;;;;3.63;1.90;;;2.00;99.90;;;;;;6187762;23;20476;-62
2023/11/26 06:36:53;;;;;;;2.30;2.10;;;2.00;99.90;;;;;;6187850;23;20428;-62
2023/11/26 06:39:23;;;;;;;1.97;1.67;;;2.00;99.90;;;;;;6187818;23;20447;-58
2023/11/26 06:41:50;;;;;;;2.20;1.40;;;2.10;99.90;;;;;;6187716;23;20713;-62
2023/11/26 06:44:17;;;;;;;2.50;1.70;;;2.00;99.90;;;;;;6188371;23;20412;-62
2023/11/26 06:46:44;;;;;;;4.57;2.50;;;1.90;99.90;;;;;;6188042;23;20491;-61
2023/11/26 06:49:11;;;;;;;2.70;1.67;;;1.80;99.90;;;;;;6188096;23;20493;-60
2023/11/26 06:51:39;;;;;;;2.27;1.90;;;1.80;99.90;;;;;;6187783;23;20453;-62
2023/11/26 06:54:07;;;;;;;7.10;1.60;;;1.70;99.90;;;;;;6187827;23;20673;-62
2023/11/26 06:56:35;;;;;;;2.30;1.73;;;1.60;99.90;;;;;;6187249;23;20425;-62
2023/11/26 06:59:02;;;;;;;2.40;1.80;;;1.60;99.90;;;;;;6187398;23;20487;-62
2023/11/26 07:01:31;;;;;;;3.03;1.77;;;1.60;99.90;;;;;;6187536;23;20424;-62
2023/11/26 07:03:57;;;;;;;2.83;1.90;;;1.60;99.90;;;;;;6187488;23;20408;-62
2023/11/26 07:06:24;;;;;;;3.40;2.00;;;1.60;99.90;;;;;;6187104;23;20472;-61
2023/11/26 07:08:51;;;;;;;2.93;2.43;;;1.50;99.90;;;;;;6187545;23;20459;-62
2023/11/26 07:11:19;;;;;;;2.83;1.87;;;1.50;99.90;;;;;;6187829;23;20443;-61
2023/11/26 07:13:48;;;;;;;3.53;1.80;;;1.50;99.90;;;;;;6187713;23;20389;-62
2023/11/26 07:16:16;;;;;;;3.40;2.10;;;1.50;99.90;;;;;;6187247;23;20462;-59
2023/11/26 07:18:43;;;;;;;2.07;1.40;;;1.50;99.90;;;;;;6187608;23;20484;-62
2023/11/26 07:21:10;;;;;;;4.20;1.80;;;1.50;99.90;;;;;;6187245;23;20436;-62
2023/11/26 07:23:37;;;;;;;2.40;1.60;;;1.50;99.90;;;;;;6187608;23;20401;-61
2023/11/26 07:26:11;;;;;;;2.90;1.50;;;1.50;99.90;;;;;;6187522;23;20449;-62
2023/11/26 07:28:39;;;;;;;2.27;1.77;;;1.50;99.90;;;;;;6187608;23;20389;-62
2023/11/26 07:31:13;;;;;;;4.80;2.60;;;1.50;99.90;;;;;;6187871;23;20405;-62
2023/11/26 07:33:40;;;;;;;5.10;2.37;;;1.50;99.90;;;;;;6187236;23;20392;-61
2023/11/26 07:36:12;;;;;;;3.50;1.80;;;1.50;99.90;;;;;;6187540;23;20420;-61
2023/11/26 07:38:39;;;;;;;2.93;2.10;;;1.50;99.90;;;;;;6187266;23;20512;-62
2023/11/26 07:41:08;;;;;;;3.83;1.97;;;1.50;99.90;;;;;;6187341;23;20405;-60
2023/11/26 07:43:35;;;;;;;1.47;1.30;;;1.50;99.90;;;;;;6187524;23;20725;-63
2023/11/26 07:46:02;;;;;;;1.90;1.40;;;1.50;99.90;;;;;;6187507;23;20467;-60
2023/11/26 07:48:30;;;;;;;4.03;1.77;;;1.50;99.90;;;;;;6187140;23;20456;-62
2023/11/26 07:50:57;;;;;;;1.93;1.67;;;1.50;99.90;;;;;;6187398;23;20447;-62
2023/11/26 07:53:25;;;;;;;2.30;1.83;;;1.30;99.90;;;;;;6186910;23;20508;-61
2023/11/26 07:55:54;;;;;;;2.27;1.63;;;1.30;99.90;;;;;;6187089;23;20492;-60
2023/11/26 07:58:22;;;;;;;2.10;1.70;;;1.40;99.90;;;;;;6187344;23;20435;-62
2023/11/26 08:00:49;;;;;;;1.70;1.60;;;1.30;99.90;;;;;;6187553;23;20404;-63
2023/11/26 08:03:17;;;;;;;5.73;2.10;;;1.20;99.90;;;;;;6187338;23;20452;-63
2023/11/26 08:05:45;;;;;;;3.47;1.70;;;1.20;99.90;;;;;;6187298;23;20734;-63
2023/11/26 08:08:13;;;;;;;1.70;1.50;;;1.20;99.90;;;;;;6187102;23;20520;-63
2023/11/26 08:10:40;;;;;;;1.70;1.43;;;1.20;99.90;;;;;;6187386;23;20404;-62
2023/11/26 08:28:49;;;;;;;4.17;2.00;;;1.30;99.90;;;;;;6242573;23;20408;-59
2023/11/26 08:31:16;;;;;;;2.63;1.80;;;1.30;99.90;;;;;;6242299;23;20448;-62
2023/11/26 08:33:44;;;;;;;3.30;1.50;;;1.30;99.90;;;;;;6241158;23;20403;-59
2023/11/26 08:36:12;;;;;;;2.07;1.77;;;1.40;99.90;;;;;;6241315;23;20380;-62
2023/11/26 08:38:41;;;;;;;2.27;1.40;;;1.40;99.90;;;;;;6240620;23;20404;-63
2023/11/26 08:41:11;;;;;;;3.00;1.60;;;1.40;99.90;;;;;;6241217;23;20944;-62
2023/11/26 08:43:41;;;;;;;2.97;1.70;;;1.40;99.90;;;;;;6240734;23;20407;-59
2023/11/26 08:46:10;;;;;;;2.37;1.70;;;1.40;99.90;;;;;;6241677;23;20408;-63
2023/11/26 08:48:37;;;;;;;2.23;2.00;;;1.50;99.90;;;;;;6241248;23;20404;-62
2023/11/26 08:51:05;;;;;;;1.60;1.30;;;1.40;99.90;;;;;;6241242;23;20412;-59
2023/11/26 08:53:37;;;;;;;3.57;1.93;;;1.50;99.90;;;;;;6240423;23;20408;-62
2023/11/26 08:56:05;;;;;;;1.80;1.70;;;1.50;99.90;;;;;;6240755;23;20384;-60
2023/11/26 08:58:32;;;;;;;1.40;1.10;;;1.50;99.90;;;;;;6241119;23;20427;-63
2023/11/26 09:00:59;;;;;;;3.43;1.57;;;1.50;99.90;;;;;;6240833;23;20856;-61
2023/11/26 09:03:27;;;;;;;2.10;1.50;;;1.50;99.90;;;;;;6240537;23;20484;-63
2023/11/26 09:05:54;;;;;;;2.03;1.67;;;1.50;99.90;;;;;;6241280;23;20419;-61
2023/11/26 09:08:21;;;;;;;3.53;1.80;;;1.50;99.90;;;;;;6241952;23;20400;-63
2023/11/26 09:10:49;;;;;;;4.00;3.30;;;1.50;99.90;;;;;;6242046;23;20878;-62
2023/11/26 09:13:16;;;;;;;1.70;1.60;;;1.60;99.90;;;;;;6241758;23;20395;-61
2023/11/26 09:15:43;;;;;;;5.57;2.00;;;1.80;99.90;;;;;;6241134;23;20392;-62
2023/11/26 09:18:12;;;;;;;3.13;1.90;;;1.80;99.90;;;;;;6240219;23;20401;-58
2023/11/26 09:20:41;;;;;;;1.77;1.50;;;1.90;99.90;;;;;;6240234;23;20450;-62
2023/11/26 09:23:08;;;;;;;2.87;2.47;;;2.20;99.90;;;;;;6240568;23;20404;-61
2023/11/26 09:25:37;;;;;;;2.23;1.20;;;2.60;99.90;;;;;;6240471;23;20476;-62
2023/11/26 09:28:05;;;;;;;2.13;1.50;;;3.20;99.90;;;;;;6240111;23;20447;-62
2023/11/26 09:30:32;;;;;;;3.93;2.20;;;3.90;99.90;;;;;;6240376;23;20463;-62
2023/11/26 09:32:59;;;;;;;2.23;1.70;;;4.40;99.90;;;;;;6240222;23;20419;-60
2023/11/26 09:35:26;;;;;;;1.40;1.03;;;4.60;99.90;;;;;;6240590;23;20435;-62
2023/11/26 09:37:55;;;;;;;1.63;1.33;;;4.80;99.90;;;;;;6240155;23;20400;-62
2023/11/26 09:40:22;;;;;;;1.53;1.40;;;4.90;99.90;;;;;;6239786;23;20431;-61
2023/11/26 09:42:56;;;;;;;2.13;1.50;;;5.10;99.90;;;;;;6240167;23;20419;-62
2023/11/26 09:45:22;;;;;;;1.87;1.33;;;5.30;99.90;;;;;;6240112;23;20432;-62
2023/11/26 09:47:52;;;;;;;1.80;1.17;;;5.30;99.90;;;;;;6240612;23;20432;-63
2023/11/26 09:50:19;;;;;;;1.40;1.30;;;5.30;99.90;;;;;;6240695;23;20436;-63
2023/11/26 09:52:49;;;;;;;2.03;1.30;;;5.40;99.90;;;;;;6240855;23;20403;-62
2023/11/26 09:55:18;;;;;;;1.70;1.20;;;5.50;99.90;;;;;;6241545;23;20412;-59
2023/11/26 09:57:45;;;;;;;1.67;1.30;;;5.40;99.90;;;;;;6240990;23;20388;-58
2023/11/26 10:00:16;;;;;;;2.20;1.53;;;5.50;99.90;;;;;;6241025;23;20428;-62
2023/11/26 10:02:43;;;;;;;2.90;1.33;;;5.40;99.90;;;;;;6241218;23;20393;-59
2023/11/26 10:05:23;;;;;;;3.20;1.73;;;5.40;99.90;;;;;;6240726;23;20424;-63
2023/11/26 10:07:52;;;;;;;3.00;1.63;;;5.30;99.90;;;;;;6240600;23;20424;-63
2023/11/26 10:10:23;;;;;;;2.70;2.23;;;5.20;99.90;;;;;;6240457;23;20439;-61
2023/11/26 10:12:52;;;;;;;1.60;1.20;;;5.60;99.90;;;;;;6240239;23;20797;-62
2023/11/26 10:15:19;;;;;;;1.80;1.17;;;5.80;99.90;;;;;;6240634;23;20427;-61
2023/11/26 10:17:59;;;;;;;2.70;1.23;;;6.20;99.90;;;;;;6241047;23;20404;-63
2023/11/26 10:20:26;;;;;;;1.90;1.40;;;6.10;99.90;;;;;;6240768;23;20423;-60
2023/11/26 10:22:53;;;;;;;1.70;1.30;;;5.90;99.90;;;;;;6240906;23;20408;-61
2023/11/26 10:25:25;;;;;;;2.27;1.20;;;6.00;99.90;;;;;;6240544;23;20428;-63
2023/11/26 10:27:53;;;;;;;2.10;1.43;;;5.70;99.90;;;;;;6240670;23;20451;-61
2023/11/26 10:30:25;;;;;;;5.13;1.90;;;5.20;99.90;;;;;;6240583;23;20432;-61
2023/11/26 10:33:00;;;;;;;2.20;1.70;;;4.80;99.90;;;;;;6240093;23;20385;-62
2023/11/26 10:35:45;;;;;;;1.93;1.40;;;4.20;99.90;;;;;;6240054;23;20475;-59
2023/11/26 10:38:12;;;;;;;5.93;1.73;;;3.90;99.90;;;;;;6240066;23;20389;-61
2023/11/26 10:40:41;;;;;;;1.63;1.13;;;3.60;99.90;;;;;;6240222;23;20428;-62
2023/11/26 10:43:10;;;;;;;1.57;0.93;;;3.40;99.90;;;;;;6240186;23;20404;-63
2023/11/26 10:45:38;;;;;;;1.63;1.23;;;3.30;99.90;;;;;;6240408;23;20439;-64
2023/11/26 10:48:09;;;;;;;3.10;1.53;;;3.20;99.90;;;;;;6240026;23;20444;-63
2023/11/26 10:50:41;;;;;;;2.07;1.17;;;3.20;99.90;;;;;;6239518;23;20455;-62
2023/11/26 10:53:23;;;;;;;1.87;1.40;;;3.20;99.90;;;;;;6240457;23;20395;-62
2023/11/26 10:55:55;;;;;;;3.00;1.30;;;3.10;99.90;;;;;;6240002;23;20543;-62
2023/11/26 10:58:34;;;;;;;1.00;0.73;;;3.00;99.90;;;;;;6240092;23;20380;-62
2023/11/26 11:01:03;;;;;;;1.57;1.07;;;2.90;99.90;;;;;;6239533;23;20416;-62
2023/11/26 11:03:33;;;;;;;1.60;1.30;;;2.90;99.90;;;;;;6239702;23;20420;-62
2023/11/26 11:06:19;;;;;;;2.57;1.27;;;2.80;99.90;;;;;;6240012;23;20431;-61
2023/11/26 11:08:48;;;;;;;3.17;1.23;;;2.90;99.90;;;;;;6239976;23;20484;-62
2023/11/26 11:11:27;;;;;;;2.50;1.37;;;2.90;99.90;;;;;;6240059;23;20432;-63
2023/11/26 11:14:03;;;;;;;1.97;1.10;;;3.00;99.90;;;;;;6239888;23;20392;-61
2023/11/26 11:16:35;;;;;;;1.63;1.03;;;3.00;99.90;;;;;;6240196;23;20428;-61
2023/11/26 11:19:03;;;;;;;4.00;1.70;;;3.10;99.90;;;;;;6240449;23;20399;-62
2023/11/26 11:21:33;;;;;;;2.43;1.63;;;3.00;99.90;;;;;;6240540;23;20439;-62
2023/11/26 11:24:01;;;;;;;2.17;1.40;;;3.00;99.90;;;;;;6240885;23;20427;-64
2023/11/26 11:26:47;;;;;;;2.10;1.50;;;2.90;99.90;;;;;;6240971;23;20450;-61
2023/11/26 11:29:37;;;;;;;1.83;1.17;;;2.80;99.90;;;;;;6240830;23;20411;-61
2023/11/26 11:32:09;;;;;;;1.77;1.67;;;3.00;99.90;;;;;;6241718;23;20515;-59
2023/11/26 11:34:40;;;;;;;2.63;1.33;;;2.90;99.90;;;;;;6242188;23;20396;-61
2023/11/26 11:37:10;;;;;;;1.50;1.07;;;2.90;99.90;;;;;;6241184;23;20400;-59
2023/11/26 11:39:53;;;;;;;2.03;1.43;;;2.80;99.90;;;;;;6242425;23;20384;-56
2023/11/26 11:42:26;;;;;;;2.23;1.10;;;2.90;99.90;;;;;;6242578;23;20431;-60
2023/11/26 11:44:53;;;;;;;2.27;1.13;;;2.90;99.90;;;;;;6242430;23;20392;-60
2023/11/26 11:47:39;;;;;;;2.70;1.70;;;3.00;99.90;;;;;;6241893;23;20448;-61
2023/11/26 11:50:08;;;;;;;2.80;1.57;;;3.10;99.90;;;;;;6242711;23;20399;-55
2023/11/26 11:52:35;;;;;;;5.70;1.20;;;3.20;99.90;;;;;;6243180;23;20415;-62
2023/11/26 11:55:38;;;;;;;1.00;0.70;;;3.30;99.90;;;;;;6242953;23;20500;-61
2023/11/26 11:58:13;;;;;;;2.63;1.10;;;3.30;99.90;;;;;;6155798;23;20411;-62
2023/11/26 12:00:43;;;;;;;1.97;1.20;;;3.30;99.90;;;;;;6242206;23;20394;-59
2023/11/26 12:03:16;;;;;;;1.57;1.10;;;3.30;99.90;;;;;;6241853;23;20415;-60
2023/11/26 12:05:43;;;;;;;2.20;1.17;;;3.30;99.90;;;;;;6241248;23;20381;-62
2023/11/26 12:08:13;;;;;;;1.47;1.13;;;3.50;99.90;;;;;;6240694;23;20444;-63
2023/11/26 12:10:40;;;;;;;2.67;1.33;;;3.50;99.90;;;;;;6241534;23;20410;-63
2023/11/26 12:13:08;;;;;;;3.60;1.33;;;3.40;99.90;;;;;;6241453;23;20473;-64
2023/11/26 12:15:38;;;;;;;1.50;1.20;;;3.40;99.90;;;;;;6241780;23;20408;-63
2023/11/26 12:18:06;;;;;;;7.50;1.43;;;3.30;99.90;;;;;;6241963;23;20407;-62
2023/11/26 12:20:34;;;;;;;1.17;0.97;;;3.30;99.90;;;;;;6241584;23;20392;-62
2023/11/26 12:23:01;;;;;;;1.67;1.17;;;3.30;99.90;;;;;;6241660;23;20388;-62
2023/11/26 12:25:28;;;;;;;2.53;1.17;;;3.30;99.90;;;;;;6242028;23;20404;-63
2023/11/26 12:28:06;;;;;;;3.00;1.40;;;3.30;99.90;;;;;;6241311;23;20448;-57
2023/11/26 12:30:35;;;;;;;1.53;1.20;;;3.30;99.90;;;;;;6241888;23;20411;-61
2023/11/26 12:33:05;;;;;;;1.40;0.90;;;3.30;99.90;;;;;;6241690;23;20484;-62
2023/11/26 12:35:33;;;;;;;2.53;1.70;;;3.30;99.90;;;;;;6241476;23;20388;-62
2023/11/26 12:38:09;;;;;;;2.60;1.60;;;3.30;99.90;;;;;;6241076;23;20411;-59
2023/11/26 12:40:36;;;;;;;2.00;1.37;;;3.40;99.90;;;;;;6241993;23;20388;-63
2023/11/26 12:43:03;;;;;;;1.30;0.80;;;3.40;99.90;;;;;;6242045;23;20412;-60
2023/11/26 12:45:30;;;;;;;2.00;1.37;;;3.50;99.90;;;;;;6242023;23;20399;-59
2023/11/26 12:47:57;;;;;;;3.23;1.60;;;3.40;99.90;;;;;;6242331;23;20444;-60
2023/11/26 12:50:26;;;;;;;1.40;1.00;;;3.40;99.90;;;;;;6241863;23;20427;-62
2023/11/26 12:52:53;;;;;;;2.53;1.40;;;3.50;99.90;;;;;;6242392;23;20435;-60
2023/11/26 12:55:21;;;;;;;3.50;1.20;;;3.50;99.90;;;;;;6242348;23;20388;-63
2023/11/26 12:57:48;;;;;;;3.23;1.80;;;3.60;99.90;;;;;;6241637;23;20452;-62
2023/11/26 13:00:15;;;;;;;1.50;1.30;;;3.60;99.90;;;;;;6241289;23;20463;-61
2023/11/26 13:02:43;;;;;;;2.63;1.80;;;3.60;99.90;;;;;;6240696;23;20438;-62
2023/11/26 13:05:31;;;;;;;3.03;1.37;;;3.60;99.90;;;;;;6241292;23;20404;-61
2023/11/26 13:07:59;;;;;;;3.47;1.30;;;3.60;99.90;;;;;;6240288;23;20444;-61
2023/11/26 13:10:45;;;;;;;4.10;1.53;;;3.60;99.90;;;;;;6241178;23;20707;-62
2023/11/26 13:13:13;;;;;;;1.40;1.10;;;3.60;99.90;;;;;;6240966;23;20404;-60
2023/11/26 13:15:41;;;;;;;8.33;1.50;;;3.60;99.90;;;;;;6240713;23;20432;-61
2023/11/26 13:18:12;;;;;;;3.07;1.60;;;3.60;99.90;;;;;;6240782;23;20428;-63
2023/11/26 13:20:43;;;;;;;4.43;1.57;;;3.60;99.90;;;;;;6240944;23;20383;-61
2023/11/26 13:23:10;;;;;;;2.43;1.80;;;3.70;99.90;;;;;;6240756;23;20432;-60
2023/11/26 13:25:37;;;;;;;1.40;1.00;;;3.60;99.90;;;;;;6240547;23;20400;-61